createdAt,value
2022-08-28T00:01:41.941Z,15.9
2022-08-28T00:11:44.011Z,15.8
2022-08-28T00:21:45.881Z,15.6
2022-08-28T00:31:47.880Z,15.3
2022-08-28T00:41:50.183Z,15.1
2022-08-28T00:51:52.629Z,14.9
2022-08-28T01:01:54.451Z,14.8
2022-08-28T01:11:57.023Z,14.7
2022-08-28T01:21:58.772Z,14.7
2022-08-28T01:32:00.571Z,14.6
2022-08-28T01:42:02.360Z,14.6
2022-08-28T02:02:06.616Z,14.5
2022-08-28T02:12:08.755Z,14.2
2022-08-28T02:22:10.542Z,14.1
2022-08-28T02:32:12.534Z,13.9
2022-08-28T02:42:14.806Z,13.9
2022-08-28T02:52:17.128Z,13.5
2022-08-28T03:02:18.878Z,13.3
2022-08-28T03:12:21.195Z,13.2
2022-08-28T03:32:26.143Z,12.9
2022-08-28T03:42:28.734Z,13
2022-08-28T03:52:31.302Z,12.8
2022-08-28T04:02:33.776Z,12.7
2022-08-28T04:12:36.202Z,12.5
2022-08-28T04:22:38.821Z,12.4
2022-08-28T04:32:40.863Z,12.4
2022-08-28T04:42:43.220Z,12.3
2022-08-28T04:52:45.300Z,12.3
2022-08-28T05:32:53.846Z,12.3
2022-08-28T05:52:58.096Z,12.5
2022-08-28T06:03:00.341Z,12.7
2022-08-28T06:13:02.770Z,13.1
2022-08-28T06:33:06.744Z,13.5
2022-08-28T06:43:08.597Z,13.8
2022-08-28T07:33:20.448Z,16.8
2022-08-28T08:33:33.339Z,16.8
2022-08-28T08:43:35.740Z,17.1
2022-08-28T09:03:40.441Z,17.9
2022-08-28T09:23:44.373Z,18.4
2022-08-28T09:33:46.537Z,18.3
2022-08-28T09:43:48.841Z,18.6
2022-08-28T09:53:50.618Z,18.7
2022-08-28T10:03:52.948Z,19
2022-08-28T10:13:55.300Z,19.4
2022-08-28T10:34:00.404Z,18.8
2022-08-28T10:44:02.332Z,19.9
2022-08-28T10:54:04.305Z,20
2022-08-28T11:04:06.863Z,20.1
2022-08-28T11:14:08.845Z,20.2
2022-08-28T11:24:10.876Z,20.3
2022-08-28T11:34:13.442Z,20.6
2022-08-28T11:44:15.864Z,21.7
2022-08-28T11:54:17.764Z,21.4
2022-08-28T12:04:20.104Z,20.9
2022-08-28T12:14:22.523Z,21.3
2022-08-28T12:34:26.829Z,22.8
2022-08-28T12:44:28.850Z,22.3
2022-08-28T12:54:31.050Z,22.7
2022-08-28T13:04:33.249Z,22.5
2022-08-28T13:14:35.334Z,21.9
2022-08-28T13:24:37.188Z,22
2022-08-28T13:34:39.187Z,22.7
2022-08-28T13:54:43.599Z,21.5
2022-08-28T14:04:45.508Z,22
2022-08-28T14:14:47.908Z,22.4
2022-08-28T14:24:50.065Z,21.8
2022-08-28T14:34:51.949Z,22
2022-08-28T14:44:54.310Z,22
2022-08-28T15:04:58.171Z,22.3
2022-08-28T15:14:59.818Z,22.3
2022-08-28T15:25:02.415Z,21.9
2022-08-28T15:35:04.481Z,22
2022-08-28T15:45:06.151Z,21.9
2022-08-28T15:55:07.870Z,22
2022-08-28T16:05:09.517Z,21.6
2022-08-28T16:15:12.107Z,21.7
2022-08-28T16:25:14.422Z,21.6
2022-08-28T16:35:16.758Z,21.5
2022-08-28T16:45:19.250Z,21.6
2022-08-28T16:55:21.430Z,21.3
2022-08-28T17:05:23.621Z,21.2
2022-08-28T17:15:26.057Z,20.9
2022-08-28T17:25:27.937Z,20.7
2022-08-28T17:35:30.454Z,20.5
2022-08-28T17:45:32.640Z,20.3
2022-08-28T17:55:34.315Z,20
2022-08-28T18:05:36.371Z,19.6
2022-08-28T18:15:38.216Z,19.4
2022-08-28T18:25:40.320Z,19.1
2022-08-28T18:25:50.535Z,19.1
2022-08-28T18:35:49.587Z,18.8
2022-08-28T18:45:50.708Z,18.4
2022-08-28T18:55:53.818Z,18.4
2022-08-28T19:05:54.931Z,17.9
2022-08-28T19:15:56.729Z,17.8
2022-08-28T19:25:58.976Z,17.4
2022-08-28T19:36:01.598Z,17.1
2022-08-28T19:46:04.255Z,16.8
2022-08-28T19:56:06.158Z,16.6
2022-08-28T20:06:08.385Z,16.4
2022-08-28T20:16:10.388Z,16.2
2022-08-28T20:26:12.474Z,15.9
2022-08-28T20:36:21.225Z,15.7
2022-08-28T20:46:16.452Z,15.5
2022-08-28T20:56:18.255Z,15.3
2022-08-28T21:06:20.235Z,15.1
2022-08-28T21:16:22.070Z,14.8
2022-08-28T21:26:23.739Z,14.7
2022-08-28T21:36:25.861Z,14.7
2022-08-28T21:46:27.899Z,14.5
2022-08-28T21:56:29.722Z,14.3
2022-08-28T22:06:32.254Z,13.8
2022-08-28T22:16:34.096Z,13.6
2022-08-28T22:26:36.631Z,13.4
2022-08-28T22:46:40.949Z,13.1
2022-08-28T22:56:43.349Z,12.9
2022-08-28T23:06:45.170Z,12.7
2022-08-28T23:16:47.336Z,12.8
2022-08-28T23:26:49.047Z,12.6
2022-08-28T23:36:50.964Z,12.4
2022-08-28T23:46:53.597Z,12.3
2022-08-28T23:56:55.875Z,12.2
